createdAt,value
2023-03-02T00:00:33.819Z,91.23
2023-03-02T00:03:07.890Z,91.13
2023-03-02T00:05:42.353Z,90.40
2023-03-02T00:08:15.915Z,90.62
2023-03-02T00:10:49.917Z,91.25
2023-03-02T00:13:23.045Z,93.96
2023-03-02T00:15:55.693Z,93.60
2023-03-02T00:18:28.348Z,93.27
2023-03-02T00:21:00.993Z,91.69
2023-03-02T00:23:33.817Z,91.30
2023-03-02T00:26:06.622Z,90.78
2023-03-02T00:28:41.108Z,91.93
2023-03-02T00:31:14.438Z,91.96
2023-03-02T00:33:47.142Z,92.08
2023-03-02T00:36:21.312Z,91.94
2023-03-02T00:38:54.262Z,91.82
2023-03-02T00:41:27.001Z,91.68
2023-03-02T00:43:59.792Z,91.75
2023-03-02T00:46:33.032Z,91.92
2023-03-02T00:49:05.720Z,92.88
2023-03-02T00:51:38.477Z,93.50
2023-03-02T00:54:11.261Z,93.86
2023-03-02T00:56:44.094Z,94.06
2023-03-02T00:59:26.867Z,94.32
2023-03-02T01:02:10.913Z,94.76
2023-03-02T01:04:45.389Z,94.93
2023-03-02T01:07:21.040Z,95.45
2023-03-02T01:09:53.980Z,96.19
2023-03-02T01:12:26.433Z,97.30
2023-03-02T01:14:59.858Z,98.47
2023-03-02T01:17:32.724Z,98.90
2023-03-02T01:20:06.843Z,98.80
2023-03-02T01:22:39.614Z,98.29
2023-03-02T01:25:13.634Z,96.74
2023-03-02T01:28:07.474Z,96.96
2023-03-02T01:30:40.484Z,98.05
2023-03-02T01:33:13.136Z,97.89
2023-03-02T01:35:48.088Z,98.26
2023-03-02T01:38:20.694Z,99.01
2023-03-02T01:40:53.571Z,99.77
2023-03-02T01:43:26.155Z,100.00
2023-03-02T01:46:01.265Z,100.00
2023-03-02T01:48:50.623Z,100.00
2023-03-02T01:51:30.453Z,100.00
2023-03-02T01:54:06.431Z,99.72
2023-03-02T01:56:41.576Z,99.87
2023-03-02T01:59:18.597Z,99.90
2023-03-02T02:01:53.945Z,99.98
2023-03-02T02:04:28.862Z,100.00
2023-03-02T02:07:05.261Z,100.00
2023-03-02T02:09:41.400Z,100.00
2023-03-02T02:12:19.276Z,100.00
2023-03-02T02:14:52.711Z,100.00
2023-03-02T02:17:25.684Z,100.00
2023-03-02T02:20:09.582Z,100.00
2023-03-02T02:22:57.031Z,100.00
2023-03-02T02:25:46.244Z,100.00
2023-03-02T02:28:24.703Z,100.00
2023-03-02T02:31:06.172Z,100.00
2023-03-02T02:33:40.924Z,100.00
2023-03-02T02:36:18.897Z,100.00
2023-03-02T02:38:56.234Z,100.00
2023-03-02T02:41:33.433Z,100.00
2023-03-02T02:44:06.123Z,100.00
2023-03-02T02:46:39.096Z,100.00
2023-03-02T02:49:22.229Z,100.00
2023-03-02T02:51:54.915Z,100.00
2023-03-02T02:54:28.393Z,100.00
2023-03-02T02:57:03.745Z,100.00
2023-03-02T02:59:40.572Z,100.00
2023-03-02T03:02:21.682Z,100.00
2023-03-02T03:05:04.329Z,100.00
2023-03-02T03:07:39.614Z,100.00
2023-03-02T03:10:19.942Z,100.00
2023-03-02T03:12:54.272Z,100.00
2023-03-02T03:15:27.462Z,100.00
2023-03-02T03:18:00.751Z,100.00
2023-03-02T03:20:33.532Z,100.00
2023-03-02T03:23:06.155Z,100.00
2023-03-02T03:25:40.909Z,100.00
2023-03-02T03:28:15.267Z,100.00
2023-03-02T03:30:47.946Z,100.00
2023-03-02T03:33:20.795Z,100.00
2023-03-02T03:35:53.574Z,100.00
2023-03-02T03:38:28.294Z,100.00
2023-03-02T03:41:01.068Z,100.00
2023-03-02T03:43:33.906Z,100.00
2023-03-02T03:46:06.798Z,100.00
2023-03-02T03:48:39.701Z,100.00
2023-03-02T03:51:12.662Z,100.00
2023-03-02T03:53:45.482Z,100.00
2023-03-02T03:56:18.174Z,100.00
2023-03-02T03:58:54.382Z,100.00
2023-03-02T04:01:35.394Z,100.00
2023-03-02T04:04:10.912Z,100.00
2023-03-02T04:06:45.313Z,100.00
2023-03-02T04:09:19.715Z,100.00
2023-03-02T04:11:54.926Z,100.00
2023-03-02T04:14:28.090Z,100.00
2023-03-02T04:17:01.656Z,100.00
2023-03-02T04:19:36.093Z,100.00
2023-03-02T04:22:08.990Z,100.00
2023-03-02T04:24:42.137Z,100.00
2023-03-02T04:27:15.365Z,100.00
2023-03-02T04:29:48.784Z,100.00
2023-03-02T04:32:21.898Z,100.00
2023-03-02T04:34:59.147Z,100.00
2023-03-02T04:37:34.617Z,100.00
2023-03-02T04:40:09.224Z,100.00
2023-03-02T04:42:42.106Z,100.00
2023-03-02T04:45:16.513Z,100.00
2023-03-02T04:47:49.254Z,100.00
2023-03-02T04:50:21.974Z,100.00
2023-03-02T04:52:54.745Z,100.00
2023-03-02T04:55:29.295Z,100.00
2023-03-02T04:58:01.963Z,100.00
2023-03-02T05:00:35.773Z,100.00
2023-03-02T05:03:09.306Z,100.00
2023-03-02T05:05:43.605Z,100.00
2023-03-02T05:08:15.994Z,100.00
2023-03-02T05:10:49.177Z,100.00
2023-03-02T05:13:21.698Z,100.00
2023-03-02T05:15:54.900Z,100.00
2023-03-02T05:18:28.168Z,100.00
2023-03-02T05:21:00.859Z,100.00
2023-03-02T05:23:34.572Z,100.00
2023-03-02T05:26:05.342Z,100.00
2023-03-02T05:28:39.159Z,100.00
2023-03-02T05:31:14.821Z,100.00
2023-03-02T05:33:47.571Z,100.00
2023-03-02T05:36:22.176Z,100.00
2023-03-02T05:38:56.556Z,100.00
2023-03-02T05:41:29.414Z,100.00
2023-03-02T05:44:02.026Z,100.00
2023-03-02T05:46:35.744Z,100.00
2023-03-02T05:49:08.759Z,100.00
2023-03-02T05:51:41.948Z,100.00
2023-03-02T05:54:14.313Z,100.00
2023-03-02T05:56:48.890Z,100.00
2023-03-02T05:59:22.693Z,100.00
2023-03-02T06:01:59.146Z,100.00
2023-03-02T06:04:32.282Z,100.00
2023-03-02T06:07:05.824Z,100.00
2023-03-02T06:09:38.499Z,100.00
2023-03-02T06:12:13.068Z,100.00
2023-03-02T06:14:47.190Z,100.00
2023-03-02T06:17:19.969Z,100.00
2023-03-02T06:19:52.407Z,100.00
2023-03-02T06:22:25.242Z,100.00
2023-03-02T06:24:57.691Z,100.00
2023-03-02T06:27:31.794Z,100.00
2023-03-02T06:30:09.092Z,100.00
2023-03-02T06:32:42.448Z,100.00
2023-03-02T06:35:16.152Z,100.00
2023-03-02T06:37:48.897Z,100.00
2023-03-02T06:40:22.482Z,100.00
2023-03-02T06:42:55.576Z,100.00
2023-03-02T06:45:29.560Z,100.00
2023-03-02T06:48:03.511Z,100.00
2023-03-02T06:50:36.691Z,100.00
2023-03-02T06:53:09.318Z,100.00
2023-03-02T06:55:41.901Z,100.00
2023-03-02T06:58:15.152Z,100.00
2023-03-02T07:00:49.276Z,100.00
2023-03-02T07:03:22.482Z,100.00
2023-03-02T07:05:55.247Z,100.00
2023-03-02T07:08:29.549Z,100.00
2023-03-02T07:11:06.407Z,100.00
2023-03-02T07:13:39.971Z,100.00
2023-03-02T07:16:16.716Z,100.00
2023-03-02T07:18:49.463Z,100.00
2023-03-02T07:21:22.185Z,100.00
2023-03-02T07:23:54.788Z,99.90
2023-03-02T07:26:27.461Z,99.28
2023-03-02T07:29:01.335Z,97.51
2023-03-02T07:31:34.243Z,95.74
2023-03-02T07:34:08.335Z,93.81
2023-03-02T07:36:41.055Z,92.95
2023-03-02T07:39:13.824Z,90.67
2023-03-02T07:41:46.290Z,91.09
2023-03-02T07:44:19.576Z,91.73
2023-03-02T07:46:52.062Z,89.54
2023-03-02T07:49:25.248Z,86.89
2023-03-02T07:51:58.309Z,86.56
2023-03-02T07:54:31.121Z,86.22
2023-03-02T07:57:03.798Z,86.97
2023-03-02T07:59:36.578Z,87.31
2023-03-02T08:02:09.213Z,84.13
2023-03-02T08:04:43.100Z,81.44
2023-03-02T08:07:15.981Z,82.13
2023-03-02T08:09:49.180Z,81.22
2023-03-02T08:12:22.340Z,81.26
2023-03-02T08:14:55.312Z,79.02
2023-03-02T08:17:28.131Z,79.19
2023-03-02T08:20:04.313Z,74.95
2023-03-02T08:22:40.371Z,76.67
2023-03-02T08:25:13.501Z,75.51
2023-03-02T08:27:47.747Z,76.94
2023-03-02T08:30:21.552Z,76.47
2023-03-02T08:32:52.281Z,76.38
2023-03-02T08:35:24.917Z,75.48
2023-03-02T08:37:57.802Z,75.18
2023-03-02T08:40:30.293Z,75.12
2023-03-02T08:43:03.033Z,74.71
2023-03-02T08:45:36.263Z,74.99
2023-03-02T08:48:09.720Z,74.47
2023-03-02T08:50:43.139Z,72.50
2023-03-02T08:53:15.590Z,70.62
2023-03-02T08:55:48.440Z,71.75
2023-03-02T08:58:21.401Z,70.14
2023-03-02T09:00:54.350Z,71.50
2023-03-02T09:03:28.897Z,72.40
2023-03-02T09:06:01.835Z,70.64
2023-03-02T09:08:34.828Z,70.00
2023-03-02T09:11:09.697Z,68.78
2023-03-02T09:13:42.464Z,67.83
2023-03-02T09:16:17.444Z,69.46
2023-03-02T09:18:50.066Z,67.37
2023-03-02T09:21:23.601Z,68.36
2023-03-02T09:23:58.538Z,67.47
2023-03-02T09:26:31.169Z,67.62
2023-03-02T09:29:04.301Z,67.90
2023-03-02T09:31:38.319Z,64.90
2023-03-02T09:34:11.781Z,64.31
2023-03-02T09:36:44.985Z,63.93
2023-03-02T09:39:19.904Z,63.05
2023-03-02T09:42:06.951Z,63.89
2023-03-02T09:45:05.142Z,63.65
2023-03-02T09:47:48.230Z,62.32
2023-03-02T09:50:32.029Z,62.36
2023-03-02T09:53:27.767Z,63.23
2023-03-02T09:56:02.795Z,62.76
2023-03-02T09:58:40.341Z,63.00
2023-03-02T10:01:17.941Z,62.58
2023-03-02T10:03:56.949Z,63.01
2023-03-02T10:06:30.592Z,65.35
2023-03-02T10:09:03.686Z,64.67
2023-03-02T10:11:45.019Z,62.92
2023-03-02T10:14:24.836Z,65.89
2023-03-02T10:17:04.989Z,61.53
2023-03-02T10:19:46.110Z,65.67
2023-03-02T10:22:28.743Z,64.48
2023-03-02T10:25:15.079Z,63.83
2023-03-02T10:27:54.177Z,63.78
2023-03-02T10:30:32.885Z,64.25
2023-03-02T10:33:13.751Z,63.58
2023-03-02T10:35:50.191Z,60.57
2023-03-02T10:38:24.119Z,62.02
2023-03-02T10:41:02.052Z,63.61
2023-03-02T10:43:44.486Z,63.03
2023-03-02T10:46:17.565Z,60.27
2023-03-02T10:48:56.608Z,60.99
2023-03-02T10:51:31.327Z,62.03
2023-03-02T10:54:14.089Z,62.90
2023-03-02T10:56:51.169Z,63.02
2023-03-02T10:59:41.116Z,60.25
2023-03-02T11:02:23.754Z,62.42
2023-03-02T11:05:00.984Z,59.69
2023-03-02T11:07:33.883Z,60.93
2023-03-02T11:10:19.187Z,61.96
2023-03-02T11:12:54.700Z,65.91
2023-03-02T11:15:30.778Z,63.10
2023-03-02T11:18:09.170Z,60.63
2023-03-02T11:20:46.533Z,58.96
2023-03-02T11:23:25.507Z,59.86
2023-03-02T11:26:01.058Z,62.59
2023-03-02T11:28:47.820Z,61.76
2023-03-02T11:31:32.036Z,61.42
2023-03-02T11:34:30.096Z,60.40
2023-03-02T11:37:20.235Z,57.43
2023-03-02T11:40:15.189Z,60.38
2023-03-02T11:42:48.779Z,58.38
2023-03-02T11:45:22.872Z,60.64
2023-03-02T11:48:03.138Z,59.79
2023-03-02T11:50:41.591Z,57.48
2023-03-02T11:53:21.444Z,56.08
2023-03-02T11:55:54.482Z,57.60
2023-03-02T11:58:31.768Z,55.87
2023-03-02T12:01:06.170Z,58.35
2023-03-02T12:03:45.399Z,55.84
2023-03-02T12:06:37.652Z,57.02
2023-03-02T12:09:34.400Z,59.30
2023-03-02T12:12:33.042Z,56.53
2023-03-02T12:15:06.124Z,57.01
2023-03-02T12:17:40.175Z,56.25
2023-03-02T12:20:30.113Z,55.17
2023-03-02T12:23:25.950Z,56.03
2023-03-02T12:26:09.697Z,60.85
2023-03-02T12:28:43.504Z,59.77
2023-03-02T12:31:17.061Z,59.95
2023-03-02T12:33:49.671Z,59.33
2023-03-02T12:36:34.075Z,59.09
2023-03-02T12:39:25.309Z,60.67
2023-03-02T12:42:26.867Z,60.82
2023-03-02T12:45:05.479Z,61.41
2023-03-02T12:47:40.186Z,59.29
2023-03-02T12:50:22.605Z,58.89
2023-03-02T12:53:03.786Z,60.94
2023-03-02T12:55:39.907Z,62.31
2023-03-02T12:58:21.353Z,59.23
2023-03-02T13:00:56.149Z,57.47
2023-03-02T13:03:30.539Z,60.22
2023-03-02T13:06:15.313Z,60.01
2023-03-02T13:08:50.336Z,59.46
2023-03-02T13:11:29.223Z,59.27
2023-03-02T13:14:04.145Z,59.28
2023-03-02T13:16:39.311Z,58.88
2023-03-02T13:19:18.641Z,58.84
2023-03-02T13:21:52.131Z,58.49
2023-03-02T13:24:33.033Z,59.05
2023-03-02T13:27:10.296Z,61.08
2023-03-02T13:29:43.169Z,61.65
2023-03-02T13:32:25.398Z,61.14
2023-03-02T13:35:00.901Z,59.45
2023-03-02T13:37:44.107Z,58.89
2023-03-02T13:40:49.917Z,58.49
2023-03-02T13:43:37.729Z,58.22
2023-03-02T13:46:24.433Z,60.68
2023-03-02T13:49:10.984Z,60.02
2023-03-02T13:51:46.354Z,59.50
2023-03-02T13:54:24.649Z,58.68
2023-03-02T13:56:58.363Z,61.49
2023-03-02T13:59:32.598Z,59.73
2023-03-02T14:02:05.530Z,61.46
2023-03-02T14:04:38.839Z,60.38
2023-03-02T14:07:11.895Z,60.52
2023-03-02T14:09:44.878Z,60.43
2023-03-02T14:12:25.937Z,59.77
2023-03-02T14:15:01.934Z,60.50
2023-03-02T14:17:34.854Z,60.58
2023-03-02T14:20:08.837Z,62.14
2023-03-02T14:22:41.542Z,60.35
2023-03-02T14:25:16.417Z,60.75
2023-03-02T14:27:49.358Z,60.06
2023-03-02T14:30:23.806Z,59.91
2023-03-02T14:32:56.526Z,60.71
2023-03-02T14:35:29.679Z,60.80
2023-03-02T14:38:02.178Z,60.75
2023-03-02T14:40:35.253Z,59.94
2023-03-02T14:43:07.996Z,60.06
2023-03-02T14:45:41.628Z,60.26
2023-03-02T14:48:13.016Z,61.49
2023-03-02T14:50:49.195Z,61.53
2023-03-02T14:53:29.786Z,60.95
2023-03-02T14:56:03.688Z,60.98
2023-03-02T14:58:38.534Z,62.02
2023-03-02T15:01:13.301Z,61.26
2023-03-02T15:03:46.581Z,61.55
2023-03-02T15:06:30.166Z,61.22
2023-03-02T15:09:03.768Z,61.34
2023-03-02T15:11:38.943Z,62.10
2023-03-02T15:14:15.549Z,62.88
2023-03-02T15:16:49.308Z,64.62
2023-03-02T15:19:21.904Z,63.36
2023-03-02T15:21:55.877Z,64.16
2023-03-02T15:24:32.008Z,64.43
2023-03-02T15:27:06.215Z,65.41
2023-03-02T15:29:39.794Z,65.51
2023-03-02T15:32:13.567Z,69.15
2023-03-02T15:34:46.904Z,75.59
2023-03-02T15:37:20.082Z,79.90
2023-03-02T15:39:57.082Z,80.66
2023-03-02T15:42:29.796Z,81.41
2023-03-02T15:45:02.459Z,82.79
2023-03-02T15:47:35.612Z,83.47
2023-03-02T15:50:09.267Z,83.82
2023-03-02T15:52:42.595Z,84.48
2023-03-02T15:55:17.268Z,85.59
2023-03-02T15:57:50.090Z,85.86
2023-03-02T16:00:25.319Z,87.17
2023-03-02T16:02:58.113Z,87.41
2023-03-02T16:05:30.835Z,88.42
2023-03-02T16:08:03.660Z,87.34
2023-03-02T16:10:37.920Z,88.47
2023-03-02T16:13:12.061Z,88.76
2023-03-02T16:15:45.242Z,88.86
2023-03-02T16:18:18.212Z,89.23
2023-03-02T16:20:50.748Z,90.15
2023-03-02T16:23:24.246Z,90.85
2023-03-02T16:25:56.874Z,90.83
2023-03-02T16:28:29.714Z,91.32
2023-03-02T16:31:09.163Z,91.23
2023-03-02T16:33:43.023Z,92.59
2023-03-02T16:36:16.342Z,93.20
2023-03-02T16:38:50.074Z,93.55
2023-03-02T16:41:22.334Z,94.20
2023-03-02T16:43:58.624Z,95.87
2023-03-02T16:46:33.160Z,96.14
2023-03-02T16:49:06.153Z,96.91
2023-03-02T16:51:40.907Z,97.38
2023-03-02T16:54:16.173Z,97.90
2023-03-02T16:56:48.759Z,98.06
2023-03-02T16:59:21.681Z,98.33
2023-03-02T17:01:54.407Z,98.78
2023-03-02T17:04:28.154Z,99.08
2023-03-02T17:07:01.454Z,99.23
2023-03-02T17:09:35.794Z,99.62
2023-03-02T17:12:08.639Z,99.91
2023-03-02T17:14:42.852Z,99.56
2023-03-02T17:17:15.459Z,99.82
2023-03-02T17:19:47.892Z,99.68
2023-03-02T17:22:20.863Z,99.66
2023-03-02T17:24:53.837Z,100.00
2023-03-02T17:27:27.630Z,100.00
2023-03-02T17:30:00.886Z,100.00
2023-03-02T17:32:33.940Z,100.00
2023-03-02T17:35:07.189Z,99.97
2023-03-02T17:37:40.025Z,100.00
2023-03-02T17:40:16.836Z,100.00
2023-03-02T17:42:49.783Z,100.00
2023-03-02T17:45:25.003Z,100.00
2023-03-02T17:47:59.288Z,100.00
2023-03-02T17:50:33.052Z,100.00
2023-03-02T17:53:03.881Z,100.00
2023-03-02T17:55:37.000Z,100.00
2023-03-02T17:58:09.929Z,100.00
2023-03-02T18:00:43.081Z,100.00
2023-03-02T18:03:17.335Z,100.00
2023-03-02T18:05:52.259Z,100.00
2023-03-02T18:08:26.562Z,100.00
2023-03-02T18:10:59.500Z,100.00
2023-03-02T18:13:33.741Z,100.00
2023-03-02T18:16:06.673Z,100.00
2023-03-02T18:18:39.500Z,100.00
2023-03-02T18:21:12.240Z,100.00
2023-03-02T18:23:45.770Z,100.00
2023-03-02T18:26:19.077Z,100.00
2023-03-02T18:28:52.374Z,100.00
2023-03-02T18:31:25.629Z,100.00
2023-03-02T18:33:59.158Z,100.00
2023-03-02T18:36:32.488Z,100.00
2023-03-02T18:39:06.051Z,100.00
2023-03-02T18:41:39.011Z,100.00
2023-03-02T18:44:12.729Z,100.00
2023-03-02T18:46:45.884Z,100.00
2023-03-02T18:49:19.013Z,100.00
2023-03-02T18:51:53.328Z,100.00
2023-03-02T18:54:26.425Z,100.00
2023-03-02T18:56:59.452Z,100.00
2023-03-02T18:59:32.214Z,100.00
2023-03-02T19:02:08.686Z,100.00
2023-03-02T19:04:42.538Z,100.00
2023-03-02T19:07:15.815Z,100.00
2023-03-02T19:09:49.114Z,100.00
2023-03-02T19:12:21.684Z,100.00
2023-03-02T19:14:56.083Z,100.00
2023-03-02T19:17:28.950Z,100.00
2023-03-02T19:20:03.374Z,100.00
2023-03-02T19:22:37.136Z,100.00
2023-03-02T19:25:11.356Z,100.00
2023-03-02T19:27:44.682Z,100.00
2023-03-02T19:30:22.166Z,100.00
2023-03-02T19:32:55.734Z,100.00
2023-03-02T19:35:30.292Z,100.00
2023-03-02T19:38:03.117Z,100.00
2023-03-02T19:40:36.681Z,100.00
2023-03-02T19:43:10.982Z,100.00
2023-03-02T19:45:45.077Z,100.00
2023-03-02T19:48:18.190Z,100.00
2023-03-02T19:50:51.949Z,100.00
2023-03-02T19:53:25.193Z,100.00
2023-03-02T19:56:03.998Z,100.00
2023-03-02T19:58:37.518Z,100.00
2023-03-02T20:01:11.140Z,100.00
2023-03-02T20:03:44.078Z,100.00
2023-03-02T20:06:17.070Z,100.00
2023-03-02T20:08:49.852Z,100.00
2023-03-02T20:11:22.948Z,100.00
2023-03-02T20:13:56.628Z,100.00
2023-03-02T20:16:27.216Z,100.00
2023-03-02T20:19:02.552Z,100.00
2023-03-02T20:21:38.236Z,100.00
2023-03-02T20:24:11.622Z,100.00
2023-03-02T20:26:44.427Z,100.00
2023-03-02T20:29:17.929Z,100.00
2023-03-02T20:31:50.814Z,100.00
2023-03-02T20:34:23.575Z,100.00
2023-03-02T20:36:56.141Z,100.00
2023-03-02T20:39:31.827Z,100.00
2023-03-02T20:42:05.332Z,100.00
2023-03-02T20:44:37.293Z,100.00
2023-03-02T20:47:14.178Z,100.00
2023-03-02T20:49:49.057Z,100.00
2023-03-02T20:52:21.721Z,100.00
2023-03-02T20:54:54.668Z,100.00
2023-03-02T20:57:27.677Z,100.00
2023-03-02T21:00:00.614Z,100.00
2023-03-02T21:02:33.236Z,100.00
2023-03-02T21:05:06.610Z,100.00
2023-03-02T21:07:39.779Z,100.00
2023-03-02T21:10:16.714Z,100.00
2023-03-02T21:12:50.877Z,100.00
2023-03-02T21:15:24.908Z,100.00
2023-03-02T21:17:56.102Z,100.00
2023-03-02T21:20:32.454Z,100.00
2023-03-02T21:23:05.243Z,100.00
2023-03-02T21:25:39.474Z,100.00
2023-03-02T21:28:13.053Z,100.00
2023-03-02T21:30:45.618Z,100.00
2023-03-02T21:33:18.265Z,100.00
2023-03-02T21:35:50.985Z,100.00
2023-03-02T21:38:24.167Z,100.00
2023-03-02T21:40:58.661Z,100.00
2023-03-02T21:43:31.290Z,100.00
2023-03-02T21:46:04.045Z,100.00
2023-03-02T21:48:37.351Z,100.00
2023-03-02T21:51:12.340Z,100.00
2023-03-02T21:53:44.962Z,100.00
2023-03-02T21:56:23.454Z,100.00
2023-03-02T21:58:58.921Z,100.00
2023-03-02T22:01:33.897Z,100.00
2023-03-02T22:04:07.212Z,100.00
2023-03-02T22:06:40.082Z,100.00
2023-03-02T22:09:14.850Z,100.00
2023-03-02T22:11:48.838Z,100.00
2023-03-02T22:14:21.559Z,100.00
2023-03-02T22:16:54.369Z,100.00
2023-03-02T22:19:30.987Z,100.00
2023-03-02T22:22:05.904Z,100.00
2023-03-02T22:24:41.108Z,100.00
2023-03-02T22:27:26.652Z,100.00
2023-03-02T22:30:00.549Z,100.00
2023-03-02T22:32:37.603Z,100.00
2023-03-02T22:35:23.785Z,100.00
2023-03-02T22:38:04.063Z,100.00
2023-03-02T22:40:37.603Z,100.00
2023-03-02T22:43:22.264Z,100.00
2023-03-02T22:45:55.874Z,100.00
2023-03-02T22:48:32.055Z,100.00
2023-03-02T22:51:16.034Z,100.00
2023-03-02T22:53:49.544Z,100.00
2023-03-02T22:56:32.589Z,100.00
2023-03-02T22:59:09.125Z,100.00
2023-03-02T23:01:44.784Z,100.00
2023-03-02T23:04:24.021Z,100.00
2023-03-02T23:06:57.883Z,100.00
2023-03-02T23:09:32.634Z,100.00
2023-03-02T23:12:07.403Z,100.00
2023-03-02T23:14:52.365Z,100.00
2023-03-02T23:17:29.186Z,100.00
2023-03-02T23:20:02.158Z,100.00
2023-03-02T23:22:35.883Z,100.00
2023-03-02T23:25:07.757Z,100.00
2023-03-02T23:27:40.486Z,100.00
2023-03-02T23:30:18.166Z,100.00
2023-03-02T23:32:50.715Z,100.00
2023-03-02T23:35:23.513Z,100.00
2023-03-02T23:37:56.042Z,100.00
2023-03-02T23:40:29.263Z,100.00
2023-03-02T23:43:03.406Z,100.00
2023-03-02T23:45:36.332Z,100.00
2023-03-02T23:48:10.182Z,100.00
2023-03-02T23:50:42.628Z,100.00
2023-03-02T23:53:15.483Z,100.00
2023-03-02T23:55:51.969Z,100.00
2023-03-02T23:58:24.838Z,100.00
